Time;durP1;ratioP1;P1;durP2;ratioP2;P2;SDS_P1;SDS_P2;PMS_P1;PMS_P2;Temp;Humidity;BMP_temperature;BMP_pressure;BME280_temperature;BME280_humidity;BME280_pressure;Samples;Min_cycle;Max_cycle;Signal;HPM_P1;HPM_P2
2023/12/08 00:02:45;;;;;;;47.15;13.93;;;;;;;;;;4995878;28;20061;-66
2023/12/08 00:05:30;;;;;;;39.78;12.32;;;;;;;;;;4996316;28;20112;-66
2023/12/08 00:08:16;;;;;;;47.97;11.88;;;;;;;;;;4996189;28;20120;-66
2023/12/08 00:11:01;;;;;;;44.30;13.07;;;;;;;;;;4983129;28;20064;-66
2023/12/08 00:13:47;;;;;;;46.40;13.48;;;;;;;;;;4996460;28;20022;-66
2023/12/08 00:16:33;;;;;;;42.80;13.18;;;;;;;;;;4996587;28;20441;-66
2023/12/08 00:19:18;;;;;;;47.90;14.70;;;;;;;;;;4995290;28;20026;-66
2023/12/08 00:22:04;;;;;;;57.55;14.07;;;;;;;;;;4996499;28;20022;-66
2023/12/08 00:24:50;;;;;;;52.42;13.60;;;;;;;;;;4995847;28;20088;-66
2023/12/08 00:27:35;;;;;;;46.22;13.70;;;;;;;;;;4987740;28;20030;-66
2023/12/08 00:30:21;;;;;;;44.60;13.30;;;;;;;;;;4986145;28;20023;-66
2023/12/08 00:33:08;;;;;;;43.58;13.57;;;;;;;;;;4995469;28;20046;-66
2023/12/08 00:35:53;;;;;;;38.28;13.80;;;;;;;;;;4995460;28;20129;-66
2023/12/08 00:38:39;;;;;;;46.38;13.63;;;;;;;;;;4984969;28;20030;-66
2023/12/08 00:41:25;;;;;;;48.50;13.57;;;;;;;;;;4995834;28;20034;-66
2023/12/08 00:44:12;;;;;;;52.97;13.80;;;;;;;;;;4980090;28;20034;-66
2023/12/08 00:46:58;;;;;;;44.92;15.32;;;;;;;;;;4994692;28;20037;-66
2023/12/08 00:49:43;;;;;;;45.17;12.68;;;;;;;;;;4995678;28;20117;-66
2023/12/08 00:52:29;;;;;;;45.15;14.75;;;;;;;;;;4995459;28;20050;-66
2023/12/08 00:55:15;;;;;;;55.05;15.60;;;;;;;;;;4995380;28;20160;-66
2023/12/08 00:58:00;;;;;;;54.35;15.40;;;;;;;;;;4995116;28;20117;-66
2023/12/08 01:00:46;;;;;;;64.25;15.68;;;;;;;;;;4995757;28;20019;-66
2023/12/08 01:03:32;;;;;;;55.25;15.00;;;;;;;;;;4995392;28;20030;-66
2023/12/08 01:06:17;;;;;;;42.90;15.00;;;;;;;;;;4981136;28;20443;-66
2023/12/08 01:09:03;;;;;;;49.90;14.40;;;;;;;;;;4995353;28;20030;-66
2023/12/08 01:11:48;;;;;;;41.83;13.52;;;;;;;;;;4995386;28;20136;-66
2023/12/08 01:14:34;;;;;;;50.63;15.40;;;;;;;;;;4994659;28;20026;-66
2023/12/08 01:17:20;;;;;;;46.28;14.25;;;;;;;;;;4995043;28;20030;-66
2023/12/08 01:20:07;;;;;;;50.72;14.40;;;;;;;;;;4995991;28;20427;-66
2023/12/08 01:22:53;;;;;;;49.15;14.63;;;;;;;;;;4981383;28;20400;-66
2023/12/08 01:25:38;;;;;;;51.53;16.40;;;;;;;;;;4994571;28;20057;-66
2023/12/08 01:28:24;;;;;;;41.08;14.00;;;;;;;;;;4995436;28;20443;-66
2023/12/08 01:31:10;;;;;;;45.83;13.48;;;;;;;;;;4993620;28;20026;-66
2023/12/08 01:33:55;;;;;;;33.25;12.30;;;;;;;;;;4994499;28;20029;-66
2023/12/08 01:36:41;;;;;;;44.80;14.15;;;;;;;;;;4995768;28;20552;-66
2023/12/08 01:39:27;;;;;;;45.45;14.63;;;;;;;;;;4995036;28;20105;-66
2023/12/08 01:42:12;;;;;;;54.10;13.35;;;;;;;;;;4995620;28;20114;-66
2023/12/08 01:44:58;;;;;;;45.67;13.52;;;;;;;;;;4995520;28;20033;-66
2023/12/08 01:47:44;;;;;;;46.20;13.38;;;;;;;;;;4993444;28;20101;-66
2023/12/08 01:50:30;;;;;;;44.40;14.43;;;;;;;;;;4995874;28;20022;-66
2023/12/08 01:53:16;;;;;;;35.72;12.57;;;;;;;;;;4995063;28;20033;-66
2023/12/08 01:56:02;;;;;;;37.90;14.32;;;;;;;;;;4979098;28;20022;-66
2023/12/08 01:58:47;;;;;;;38.40;14.48;;;;;;;;;;4979059;28;20523;-66
2023/12/08 02:01:33;;;;;;;36.55;12.82;;;;;;;;;;4994665;28;20022;-66
2023/12/08 02:04:19;;;;;;;46.85;12.75;;;;;;;;;;4979315;28;20022;-66
2023/12/08 02:07:05;;;;;;;32.85;12.65;;;;;;;;;;4993636;28;20377;-66
2023/12/08 02:09:50;;;;;;;38.28;12.05;;;;;;;;;;4993681;28;20038;-66
2023/12/08 02:12:36;;;;;;;41.78;12.07;;;;;;;;;;4979643;28;20575;-66
2023/12/08 02:15:22;;;;;;;43.67;13.77;;;;;;;;;;4992203;28;20030;-66
2023/12/08 02:18:08;;;;;;;25.42;11.40;;;;;;;;;;4993653;28;20161;-66
2023/12/08 02:20:54;;;;;;;41.97;12.52;;;;;;;;;;4979465;28;20026;-66
2023/12/08 02:23:47;;;;;;;36.35;12.40;;;;;;;;;;4979315;28;20018;-66
2023/12/08 02:26:33;;;;;;;39.25;12.60;;;;;;;;;;4994337;28;20022;-66
2023/12/08 02:29:19;;;;;;;44.17;13.98;;;;;;;;;;4994071;28;20041;-66
2023/12/08 02:32:18;;;;;;;40.60;12.43;;;;;;;;;;4980459;28;20018;-66
2023/12/08 02:35:05;;;;;;;30.83;12.20;;;;;;;;;;4978383;28;20022;-66
2023/12/08 02:37:51;;;;;;;36.72;13.13;;;;;;;;;;4978844;28;20030;-66
2023/12/08 02:40:37;;;;;;;42.30;13.05;;;;;;;;;;4993469;28;20030;-66
2023/12/08 02:43:23;;;;;;;45.75;13.15;;;;;;;;;;4978611;28;20398;-66
2023/12/08 02:46:56;;;;;;;47.85;13.52;;;;;;;;;;4993764;28;20030;-66
2023/12/08 02:49:41;;;;;;;39.85;13.38;;;;;;;;;;4993491;28;20057;-66
2023/12/08 02:52:27;;;;;;;43.88;14.43;;;;;;;;;;4993023;28;20105;-66
2023/12/08 02:55:13;;;;;;;38.88;13.63;;;;;;;;;;4994083;28;20037;-66
2023/12/08 02:57:58;;;;;;;43.03;13.35;;;;;;;;;;4993862;28;20030;-66
2023/12/08 03:00:44;;;;;;;38.03;11.43;;;;;;;;;;4974433;28;20500;-66
2023/12/08 03:03:29;;;;;;;39.97;13.00;;;;;;;;;;4974722;28;20432;-66
2023/12/08 03:06:15;;;;;;;35.75;13.35;;;;;;;;;;4984502;28;20029;-66
2023/12/08 03:09:01;;;;;;;31.45;13.65;;;;;;;;;;4973999;28;20031;-66
2023/12/08 03:11:46;;;;;;;34.80;13.00;;;;;;;;;;4973201;28;20058;-66
2023/12/08 03:14:32;;;;;;;37.05;12.57;;;;;;;;;;4966417;28;20022;-66
2023/12/08 03:17:17;;;;;;;36.70;12.15;;;;;;;;;;4995182;28;20022;-66
2023/12/08 03:20:04;;;;;;;32.47;11.35;;;;;;;;;;4992902;28;20072;-66
2023/12/08 03:22:50;;;;;;;42.58;13.07;;;;;;;;;;4993736;28;20034;-66
2023/12/08 03:25:35;;;;;;;41.03;12.90;;;;;;;;;;4994079;28;20027;-66
2023/12/08 03:28:21;;;;;;;40.33;12.48;;;;;;;;;;4992695;28;20080;-66
2023/12/08 03:31:10;;;;;;;37.15;11.48;;;;;;;;;;4992594;28;20052;-66
2023/12/08 03:33:56;;;;;;;33.38;12.13;;;;;;;;;;4978454;28;20023;-66
2023/12/08 03:36:42;;;;;;;32.20;11.20;;;;;;;;;;4993364;28;20030;-66
2023/12/08 03:39:27;;;;;;;39.88;11.45;;;;;;;;;;4993462;28;20032;-66
2023/12/08 03:42:13;;;;;;;31.05;11.05;;;;;;;;;;4992658;28;20022;-66
2023/12/08 03:44:59;;;;;;;31.45;10.82;;;;;;;;;;4992866;28;20092;-66
2023/12/08 03:47:44;;;;;;;33.92;11.20;;;;;;;;;;4992352;28;20022;-66
2023/12/08 03:50:30;;;;;;;33.92;12.02;;;;;;;;;;4992595;28;20038;-66
2023/12/08 03:53:15;;;;;;;29.50;11.75;;;;;;;;;;4992929;28;20415;-66
2023/12/08 03:56:01;;;;;;;35.78;13.48;;;;;;;;;;4992907;28;20035;-66
2023/12/08 03:58:47;;;;;;;33.53;11.52;;;;;;;;;;4993177;28;20071;-66
2023/12/08 04:01:32;;;;;;;37.50;12.50;;;;;;;;;;4993476;28;20018;-66
2023/12/08 04:04:18;;;;;;;32.53;11.43;;;;;;;;;;4992977;28;20562;-66
2023/12/08 04:07:04;;;;;;;41.78;11.68;;;;;;;;;;4992458;28;20399;-66
2023/12/08 04:09:49;;;;;;;32.08;10.50;;;;;;;;;;4978230;28;20081;-66
2023/12/08 04:12:35;;;;;;;32.90;11.02;;;;;;;;;;4972937;28;20106;-66
2023/12/08 04:15:20;;;;;;;27.25;10.73;;;;;;;;;;4973395;28;20030;-66
2023/12/08 04:18:06;;;;;;;36.90;12.55;;;;;;;;;;4972766;28;20035;-66
2023/12/08 04:20:52;;;;;;;36.15;11.98;;;;;;;;;;4973940;28;20029;-66
2023/12/08 04:23:37;;;;;;;32.78;12.60;;;;;;;;;;4975536;28;20030;-66
2023/12/08 04:26:25;;;;;;;42.55;11.90;;;;;;;;;;4977233;28;20058;-66
2023/12/08 04:29:10;;;;;;;32.83;11.18;;;;;;;;;;4984258;28;20027;-66
2023/12/08 04:31:56;;;;;;;37.75;12.10;;;;;;;;;;4996049;28;20081;-66
2023/12/08 04:34:41;;;;;;;34.47;12.68;;;;;;;;;;4996025;28;20034;-66
2023/12/08 04:37:27;;;;;;;36.40;11.82;;;;;;;;;;4995540;28;20062;-66
2023/12/08 04:40:13;;;;;;;34.40;11.38;;;;;;;;;;4995336;28;20018;-66
2023/12/08 04:42:58;;;;;;;34.97;10.25;;;;;;;;;;4993741;28;20105;-66
2023/12/08 04:45:44;;;;;;;31.17;11.90;;;;;;;;;;4996104;28;20023;-66
2023/12/08 04:48:29;;;;;;;46.10;13.95;;;;;;;;;;4985508;28;20031;-65
2023/12/08 04:51:15;;;;;;;31.83;12.57;;;;;;;;;;4996164;28;20104;-66
2023/12/08 04:54:01;;;;;;;39.28;11.75;;;;;;;;;;4995131;28;20027;-65
2023/12/08 04:56:47;;;;;;;27.30;10.57;;;;;;;;;;4994147;28;20023;-66
2023/12/08 04:59:32;;;;;;;40.83;11.68;;;;;;;;;;4995737;28;20061;-66
2023/12/08 05:02:18;;;;;;;34.20;11.25;;;;;;;;;;4995453;28;20109;-66
2023/12/08 05:05:04;;;;;;;28.67;11.30;;;;;;;;;;4996150;28;20484;-66
2023/12/08 05:07:50;;;;;;;36.42;11.98;;;;;;;;;;4995640;28;20022;-66
2023/12/08 05:10:36;;;;;;;32.20;10.25;;;;;;;;;;4994674;28;20038;-66
2023/12/08 05:13:21;;;;;;;35.60;13.25;;;;;;;;;;4994781;28;20034;-66
2023/12/08 05:16:10;;;;;;;29.00;10.95;;;;;;;;;;4995013;28;20029;-66
2023/12/08 05:18:56;;;;;;;34.15;10.52;;;;;;;;;;4994487;28;20510;-65
2023/12/08 05:21:41;;;;;;;36.03;13.20;;;;;;;;;;4980868;28;20400;-66
2023/12/08 05:24:27;;;;;;;30.92;11.32;;;;;;;;;;4995667;28;20077;-66
2023/12/08 05:27:12;;;;;;;27.88;11.35;;;;;;;;;;4995475;28;20034;-66
2023/12/08 05:29:58;;;;;;;33.53;11.73;;;;;;;;;;4995236;28;20109;-65
2023/12/08 05:32:44;;;;;;;33.00;11.70;;;;;;;;;;4994630;28;20025;-66
2023/12/08 05:35:29;;;;;;;30.55;12.90;;;;;;;;;;4995606;28;20018;-66
2023/12/08 05:38:15;;;;;;;38.33;12.35;;;;;;;;;;4994801;28;20480;-66
2023/12/08 05:41:01;;;;;;;31.45;10.93;;;;;;;;;;4994645;28;20050;-66
2023/12/08 05:43:46;;;;;;;31.25;11.18;;;;;;;;;;4994923;28;20026;-66
2023/12/08 05:46:32;;;;;;;32.22;12.13;;;;;;;;;;4994154;28;20014;-66
2023/12/08 05:49:18;;;;;;;29.55;10.98;;;;;;;;;;4994587;28;20034;-66
2023/12/08 05:52:04;;;;;;;34.70;11.48;;;;;;;;;;4995093;28;20049;-66
2023/12/08 05:54:49;;;;;;;32.40;11.15;;;;;;;;;;4994374;28;20109;-66
2023/12/08 05:57:35;;;;;;;31.35;12.75;;;;;;;;;;4994890;28;20023;-66
2023/12/08 06:00:21;;;;;;;30.23;11.98;;;;;;;;;;4994529;28;20065;-66
2023/12/08 06:03:06;;;;;;;33.38;10.13;;;;;;;;;;4994748;28;20161;-66
2023/12/08 06:05:53;;;;;;;31.98;12.15;;;;;;;;;;4993838;28;20026;-66
2023/12/08 06:08:38;;;;;;;25.73;10.63;;;;;;;;;;4993740;28;20019;-66
2023/12/08 06:11:24;;;;;;;30.02;11.40;;;;;;;;;;4995395;28;20026;-66
2023/12/08 06:14:10;;;;;;;28.50;11.27;;;;;;;;;;4994594;28;20027;-66
2023/12/08 06:16:55;;;;;;;32.17;11.38;;;;;;;;;;4993931;28;20161;-66
2023/12/08 06:19:41;;;;;;;26.42;11.18;;;;;;;;;;4994225;28;20045;-66
2023/12/08 06:22:26;;;;;;;24.13;8.95;;;;;;;;;;4993609;28;20022;-66
2023/12/08 06:25:12;;;;;;;26.05;11.57;;;;;;;;;;4993546;28;20026;-66
2023/12/08 06:27:58;;;;;;;26.85;12.02;;;;;;;;;;4994074;28;20026;-66
2023/12/08 06:30:43;;;;;;;26.27;10.15;;;;;;;;;;4994167;28;20033;-66
2023/12/08 06:33:29;;;;;;;26.30;10.32;;;;;;;;;;4993467;28;20407;-66
2023/12/08 06:36:15;;;;;;;27.50;9.60;;;;;;;;;;4994228;28;20057;-66
2023/12/08 06:39:03;;;;;;;29.52;11.00;;;;;;;;;;4993724;28;20026;-66
2023/12/08 06:41:48;;;;;;;28.63;10.13;;;;;;;;;;4980584;28;20019;-66
2023/12/08 06:44:34;;;;;;;28.20;11.20;;;;;;;;;;4993885;28;20022;-66
2023/12/08 06:47:20;;;;;;;29.13;11.55;;;;;;;;;;4993665;28;20030;-66
2023/12/08 06:50:06;;;;;;;32.47;11.95;;;;;;;;;;4994373;28;20034;-66
2023/12/08 06:52:52;;;;;;;31.70;10.13;;;;;;;;;;4994174;28;20125;-66
2023/12/08 06:55:38;;;;;;;28.23;10.27;;;;;;;;;;4993444;28;20440;-66
2023/12/08 06:58:24;;;;;;;27.92;11.10;;;;;;;;;;4994333;28;20030;-66
2023/12/08 07:01:09;;;;;;;32.28;11.77;;;;;;;;;;4993942;28;20057;-66
2023/12/08 07:03:55;;;;;;;21.05;9.30;;;;;;;;;;4993000;28;20117;-66
2023/12/08 07:06:40;;;;;;;29.13;11.65;;;;;;;;;;4993814;28;20453;-66
2023/12/08 07:09:26;;;;;;;30.00;11.07;;;;;;;;;;4993430;28;20407;-66
2023/12/08 07:12:12;;;;;;;23.55;9.38;;;;;;;;;;4993035;28;20022;-66
2023/12/08 07:14:57;;;;;;;29.42;10.40;;;;;;;;;;4993838;28;20022;-66
2023/12/08 07:17:43;;;;;;;20.27;10.48;;;;;;;;;;4993636;28;20035;-66
2023/12/08 07:20:29;;;;;;;27.15;10.88;;;;;;;;;;4978937;28;20026;-66
2023/12/08 07:23:14;;;;;;;31.83;11.95;;;;;;;;;;4992637;28;20065;-66
2023/12/08 07:26:00;;;;;;;26.55;11.07;;;;;;;;;;4993717;28;20026;-66
2023/12/08 07:28:46;;;;;;;32.38;10.20;;;;;;;;;;4992092;28;20030;-66
2023/12/08 07:31:32;;;;;;;23.33;10.70;;;;;;;;;;4993033;28;20054;-66
2023/12/08 07:34:17;;;;;;;32.60;12.70;;;;;;;;;;4993390;28;20036;-66
2023/12/08 07:37:03;;;;;;;21.70;9.65;;;;;;;;;;4992521;28;20471;-66
2023/12/08 07:39:49;;;;;;;25.23;9.10;;;;;;;;;;4992266;28;20034;-66
2023/12/08 07:42:38;;;;;;;23.30;8.60;;;;;;;;;;4993319;28;20061;-66
2023/12/08 07:45:23;;;;;;;27.00;9.93;;;;;;;;;;4992600;28;20029;-66
2023/12/08 07:48:09;;;;;;;22.98;9.93;;;;;;;;;;4992632;28;20073;-66
2023/12/08 07:50:55;;;;;;;25.80;10.75;;;;;;;;;;4991527;28;20033;-66
2023/12/08 07:53:40;;;;;;;32.28;11.35;;;;;;;;;;4993168;28;20034;-66
2023/12/08 07:56:26;;;;;;;20.70;9.02;;;;;;;;;;4993118;28;20030;-66
2023/12/08 07:59:12;;;;;;;23.55;10.40;;;;;;;;;;4996091;28;20030;-66
2023/12/08 08:01:58;;;;;;;25.92;10.55;;;;;;;;;;4989509;28;20121;-66
2023/12/08 08:04:43;;;;;;;27.02;8.95;;;;;;;;;;4985007;28;20064;-66
2023/12/08 08:07:29;;;;;;;30.20;12.13;;;;;;;;;;4996366;28;20022;-66
2023/12/08 08:10:14;;;;;;;24.00;10.90;;;;;;;;;;4993745;28;20030;-66
2023/12/08 08:13:01;;;;;;;32.38;10.95;;;;;;;;;;4996040;28;20019;-66
2023/12/08 08:15:46;;;;;;;26.13;10.65;;;;;;;;;;4995818;28;20058;-66
2023/12/08 08:18:32;;;;;;;27.35;10.27;;;;;;;;;;4992054;28;20026;-66
2023/12/08 08:21:18;;;;;;;25.77;11.60;;;;;;;;;;4976946;28;20030;-66
2023/12/08 08:24:04;;;;;;;28.98;10.68;;;;;;;;;;4976762;28;20550;-66
2023/12/08 08:26:50;;;;;;;26.50;10.60;;;;;;;;;;4982517;28;20022;-66
2023/12/08 08:29:35;;;;;;;32.17;11.88;;;;;;;;;;4977221;28;20050;-66
2023/12/08 08:32:21;;;;;;;25.58;10.45;;;;;;;;;;4975420;28;20046;-66
2023/12/08 08:35:07;;;;;;;34.13;11.25;;;;;;;;;;4982314;28;20484;-66
2023/12/08 08:37:53;;;;;;;34.95;13.07;;;;;;;;;;4977042;28;20034;-66
2023/12/08 08:40:38;;;;;;;27.85;11.32;;;;;;;;;;4977031;28;20029;-66
2023/12/08 08:43:24;;;;;;;34.13;11.98;;;;;;;;;;4981001;28;20435;-66
2023/12/08 08:46:10;;;;;;;32.72;13.35;;;;;;;;;;4994678;28;20023;-66
2023/12/08 08:48:56;;;;;;;35.75;11.82;;;;;;;;;;4995073;28;20506;-66
2023/12/08 08:51:43;;;;;;;32.20;11.27;;;;;;;;;;4996004;28;20500;-66
2023/12/08 08:54:29;;;;;;;36.72;12.82;;;;;;;;;;4994939;28;20447;-67
2023/12/08 08:57:18;;;;;;;37.90;13.73;;;;;;;;;;4994057;28;20475;-66
2023/12/08 09:00:05;;;;;;;29.75;13.13;;;;;;;;;;4967236;28;20377;-66
2023/12/08 09:02:51;;;;;;;32.45;13.50;;;;;;;;;;4994749;28;20084;-66
2023/12/08 09:05:40;;;;;;;39.67;13.25;;;;;;;;;;4994242;28;20161;-66
2023/12/08 09:08:26;;;;;;;31.10;12.90;;;;;;;;;;4993349;28;20014;-66
2023/12/08 09:11:12;;;;;;;30.42;11.93;;;;;;;;;;4994435;28;20027;-66
2023/12/08 09:13:58;;;;;;;29.65;13.35;;;;;;;;;;4994554;28;20045;-66
2023/12/08 09:16:46;;;;;;;26.65;11.07;;;;;;;;;;4994316;28;20540;-66
2023/12/08 09:19:32;;;;;;;28.50;11.52;;;;;;;;;;4993665;28;20038;-66
2023/12/08 09:22:18;;;;;;;31.17;12.13;;;;;;;;;;4994238;28;20096;-66
2023/12/08 09:25:03;;;;;;;33.28;13.43;;;;;;;;;;4994264;28;20096;-66
2023/12/08 09:27:49;;;;;;;36.63;12.23;;;;;;;;;;4993506;28;20027;-66
2023/12/08 09:30:35;;;;;;;33.05;12.02;;;;;;;;;;4993976;28;20026;-67
2023/12/08 09:33:20;;;;;;;27.35;9.90;;;;;;;;;;4979642;28;20404;-66
2023/12/08 09:36:06;;;;;;;37.00;13.02;;;;;;;;;;4974192;28;20034;-66
2023/12/08 09:38:52;;;;;;;30.25;11.43;;;;;;;;;;4984245;28;20023;-66
2023/12/08 09:41:38;;;;;;;26.20;10.73;;;;;;;;;;4994398;28;20548;-66
2023/12/08 09:44:24;;;;;;;26.58;10.55;;;;;;;;;;4994002;28;20026;-66
2023/12/08 09:47:10;;;;;;;26.98;11.30;;;;;;;;;;4993810;28;20030;-66
2023/12/08 09:50:00;;;;;;;31.15;11.05;;;;;;;;;;4994441;28;20042;-67
2023/12/08 09:52:45;;;;;;;35.53;10.75;;;;;;;;;;4993516;28;20046;-66
2023/12/08 09:55:32;;;;;;;32.42;11.43;;;;;;;;;;4980513;28;20041;-66
2023/12/08 09:58:18;;;;;;;31.88;12.02;;;;;;;;;;4993598;28;20586;-66
2023/12/08 10:01:04;;;;;;;28.75;12.15;;;;;;;;;;4979801;28;20407;-67
2023/12/08 10:03:50;;;;;;;36.70;13.35;;;;;;;;;;4993845;28;20084;-66
2023/12/08 10:06:38;;;;;;;31.80;12.10;;;;;;;;;;4993844;28;20018;-66
2023/12/08 10:09:24;;;;;;;23.67;11.15;;;;;;;;;;4980192;28;20019;-66
2023/12/08 10:12:09;;;;;;;30.95;11.57;;;;;;;;;;4978763;28;20030;-68
2023/12/08 10:14:57;;;;;;;30.65;11.95;;;;;;;;;;4993707;28;20026;-68
2023/12/08 10:17:47;;;;;;;27.75;10.88;;;;;;;;;;4978684;28;20403;-69
2023/12/08 10:20:33;;;;;;;23.75;11.27;;;;;;;;;;4993501;28;20045;-68
2023/12/08 10:23:22;;;;;;;32.50;11.60;;;;;;;;;;4993937;28;20088;-68
2023/12/08 10:26:08;;;;;;;31.15;12.13;;;;;;;;;;4993210;28;20026;-69
2023/12/08 10:28:55;;;;;;;30.98;11.25;;;;;;;;;;4979379;28;20029;-68
2023/12/08 10:31:41;;;;;;;27.98;10.70;;;;;;;;;;4992837;28;20034;-69
2023/12/08 10:34:27;;;;;;;27.75;10.68;;;;;;;;;;4993758;28;20022;-68
2023/12/08 10:37:13;;;;;;;30.27;11.23;;;;;;;;;;4992874;28;20085;-68
2023/12/08 10:40:00;;;;;;;22.92;9.25;;;;;;;;;;4993963;28;20020;-68
2023/12/08 10:42:47;;;;;;;30.13;13.00;;;;;;;;;;4993274;28;20096;-68
2023/12/08 10:45:33;;;;;;;30.67;11.52;;;;;;;;;;4992651;28;20033;-68
2023/12/08 10:48:20;;;;;;;26.98;10.65;;;;;;;;;;4994243;28;20022;-68
2023/12/08 10:51:13;;;;;;;30.95;11.38;;;;;;;;;;4979983;28;20048;-68
2023/12/08 10:53:59;;;;;;;28.98;9.60;;;;;;;;;;4994111;28;20083;-68
2023/12/08 10:56:46;;;;;;;26.30;11.63;;;;;;;;;;4973518;28;20027;-69
2023/12/08 10:59:32;;;;;;;32.13;12.23;;;;;;;;;;4973234;28;20118;-69
2023/12/08 11:02:24;;;;;;;25.25;10.93;;;;;;;;;;4972097;28;20042;-68
2023/12/08 11:05:12;;;;;;;27.38;11.05;;;;;;;;;;4977709;28;20061;-68
2023/12/08 11:08:00;;;;;;;25.77;11.45;;;;;;;;;;4973616;28;20030;-68
2023/12/08 11:10:52;;;;;;;32.42;11.80;;;;;;;;;;4974031;28;20507;-68
2023/12/08 11:13:43;;;;;;;26.67;11.05;;;;;;;;;;4979585;28;20121;-68
2023/12/08 11:16:38;;;;;;;31.23;12.82;;;;;;;;;;4978084;28;20050;-68
2023/12/08 11:19:25;;;;;;;23.88;10.40;;;;;;;;;;4972663;28;20500;-68
2023/12/08 11:22:11;;;;;;;30.48;9.75;;;;;;;;;;4973002;28;20088;-68
2023/12/08 11:24:59;;;;;;;23.83;10.25;;;;;;;;;;4978556;28;20038;-68
2023/12/08 11:28:01;;;;;;;27.55;11.02;;;;;;;;;;4984892;28;20028;-68
2023/12/08 11:30:58;;;;;;;25.30;11.85;;;;;;;;;;4991373;28;20076;-68
2023/12/08 11:34:04;;;;;;;27.42;10.88;;;;;;;;;;4996869;28;20018;-68
2023/12/08 11:36:49;;;;;;;29.75;10.75;;;;;;;;;;4995697;28;20053;-69
2023/12/08 11:39:38;;;;;;;27.27;10.32;;;;;;;;;;4996571;28;20077;-68
2023/12/08 11:42:24;;;;;;;23.23;11.38;;;;;;;;;;4995751;28;20100;-68
2023/12/08 11:45:10;;;;;;;26.88;11.23;;;;;;;;;;4977756;28;20031;-68
2023/12/08 11:47:56;;;;;;;28.60;10.85;;;;;;;;;;4977054;28;20078;-68
2023/12/08 11:50:42;;;;;;;25.20;9.63;;;;;;;;;;4994475;28;20385;-68
2023/12/08 11:53:27;;;;;;;25.48;10.65;;;;;;;;;;4997127;28;20503;-68
2023/12/08 11:56:39;;;;;;;23.25;9.60;;;;;;;;;;4994747;28;20072;-68
2023/12/08 11:59:25;;;;;;;22.58;9.85;;;;;;;;;;4995218;28;20030;-68
2023/12/08 12:02:11;;;;;;;21.60;10.00;;;;;;;;;;4992777;28;20030;-68
2023/12/08 12:04:57;;;;;;;23.30;10.57;;;;;;;;;;4981636;28;20502;-68
2023/12/08 12:07:49;;;;;;;22.65;9.95;;;;;;;;;;4981123;28;20030;-68
2023/12/08 12:10:35;;;;;;;20.73;8.35;;;;;;;;;;4995483;28;20026;-68
2023/12/08 12:13:22;;;;;;;22.27;9.98;;;;;;;;;;4993685;28;20530;-68
2023/12/08 12:16:08;;;;;;;22.17;9.43;;;;;;;;;;4982532;28;20480;-68
2023/12/08 12:18:54;;;;;;;23.63;9.57;;;;;;;;;;4996198;28;20037;-68
2023/12/08 12:21:42;;;;;;;22.02;9.23;;;;;;;;;;4994969;28;20110;-71
2023/12/08 12:24:29;;;;;;;22.23;9.85;;;;;;;;;;4995749;28;20053;-70
2023/12/08 12:27:14;;;;;;;23.83;9.85;;;;;;;;;;4980819;28;20403;-71
2023/12/08 12:30:01;;;;;;;25.85;9.90;;;;;;;;;;4995137;28;20403;-70
2023/12/08 12:32:47;;;;;;;23.80;10.55;;;;;;;;;;4991601;28;20042;-70
2023/12/08 12:35:33;;;;;;;25.75;9.55;;;;;;;;;;4979964;28;20027;-70
2023/12/08 12:38:19;;;;;;;23.52;10.25;;;;;;;;;;4994865;28;20510;-70
2023/12/08 12:41:23;;;;;;;26.90;11.30;;;;;;;;;;4995137;28;20130;-71
2023/12/08 12:44:09;;;;;;;24.98;10.65;;;;;;;;;;4966587;28;20026;-71
2023/12/08 12:46:54;;;;;;;24.67;10.02;;;;;;;;;;4980609;28;20030;-71
2023/12/08 12:49:42;;;;;;;25.45;10.98;;;;;;;;;;4995307;28;20038;-71
2023/12/08 12:52:28;;;;;;;26.75;10.55;;;;;;;;;;4981244;28;20036;-70
2023/12/08 12:55:24;;;;;;;23.00;10.48;;;;;;;;;;4995647;28;20022;-70
2023/12/08 12:58:20;;;;;;;27.63;10.77;;;;;;;;;;4982159;28;20030;-70
2023/12/08 13:01:11;;;;;;;24.13;11.40;;;;;;;;;;4990712;28;20077;-71
2023/12/08 13:03:58;;;;;;;26.95;11.23;;;;;;;;;;4984212;28;20030;-71
2023/12/08 13:06:43;;;;;;;31.45;12.63;;;;;;;;;;4994614;28;20058;-70
2023/12/08 13:09:29;;;;;;;35.42;13.05;;;;;;;;;;4994258;28;20018;-70
2023/12/08 13:12:15;;;;;;;26.98;11.07;;;;;;;;;;4995019;28;20050;-71
2023/12/08 13:15:01;;;;;;;27.73;11.02;;;;;;;;;;4992019;28;20030;-67
2023/12/08 13:17:46;;;;;;;30.92;12.25;;;;;;;;;;4994740;28;20026;-67
2023/12/08 13:20:37;;;;;;;32.45;11.77;;;;;;;;;;4994991;28;20491;-67
2023/12/08 13:23:23;;;;;;;33.10;12.43;;;;;;;;;;4981178;28;20109;-67
2023/12/08 13:26:09;;;;;;;35.38;12.75;;;;;;;;;;4993102;28;20399;-67
2023/12/08 13:28:55;;;;;;;28.60;11.50;;;;;;;;;;4981302;28;20025;-67
2023/12/08 13:31:40;;;;;;;29.73;13.05;;;;;;;;;;4994311;28;20026;-68
2023/12/08 13:34:26;;;;;;;34.35;12.02;;;;;;;;;;4994116;28;20114;-68
2023/12/08 13:37:12;;;;;;;29.27;11.32;;;;;;;;;;4994930;28;20121;-68
2023/12/08 13:39:57;;;;;;;30.25;11.60;;;;;;;;;;4979912;28;20018;-68
2023/12/08 13:42:43;;;;;;;30.88;12.73;;;;;;;;;;4994964;28;20109;-70
2023/12/08 13:45:29;;;;;;;26.23;10.60;;;;;;;;;;4994346;28;20026;-69
2023/12/08 13:48:16;;;;;;;29.60;11.95;;;;;;;;;;4994219;28;20483;-69
2023/12/08 13:51:02;;;;;;;31.75;12.20;;;;;;;;;;4993143;28;20148;-69
2023/12/08 13:53:47;;;;;;;29.35;12.05;;;;;;;;;;4994919;28;20113;-69
2023/12/08 13:56:33;;;;;;;34.17;11.48;;;;;;;;;;4986753;28;20023;-69
2023/12/08 13:59:18;;;;;;;29.65;11.25;;;;;;;;;;4974837;28;20026;-69
2023/12/08 14:02:04;;;;;;;29.35;12.27;;;;;;;;;;4988995;28;20025;-69
2023/12/08 14:04:50;;;;;;;28.95;11.85;;;;;;;;;;4980509;28;20467;-69
2023/12/08 14:07:39;;;;;;;22.98;11.27;;;;;;;;;;4993520;28;20066;-69
2023/12/08 14:10:24;;;;;;;32.13;13.32;;;;;;;;;;4993737;28;20030;-69
2023/12/08 14:13:10;;;;;;;34.33;11.73;;;;;;;;;;4993959;28;20399;-69
2023/12/08 14:15:55;;;;;;;31.40;12.55;;;;;;;;;;4994591;28;20022;-69
2023/12/08 14:18:41;;;;;;;35.55;12.15;;;;;;;;;;4993494;28;20035;-69
2023/12/08 14:21:27;;;;;;;32.67;11.32;;;;;;;;;;4993726;28;20034;-68
2023/12/08 14:24:12;;;;;;;28.60;10.93;;;;;;;;;;4978857;28;20026;-69
2023/12/08 14:26:58;;;;;;;29.55;12.02;;;;;;;;;;4993269;28;20398;-69
2023/12/08 14:29:46;;;;;;;30.88;11.38;;;;;;;;;;4993846;28;20091;-69
2023/12/08 14:32:32;;;;;;;32.90;13.55;;;;;;;;;;4992400;28;20034;-70
2023/12/08 14:35:18;;;;;;;28.17;12.32;;;;;;;;;;4994525;28;20369;-69
2023/12/08 14:38:04;;;;;;;28.10;11.32;;;;;;;;;;4993543;28;20026;-69
2023/12/08 14:40:49;;;;;;;34.20;12.00;;;;;;;;;;4992589;28;20037;-69
2023/12/08 14:43:35;;;;;;;36.17;13.45;;;;;;;;;;4993051;28;20026;-69
2023/12/08 14:46:21;;;;;;;32.05;11.93;;;;;;;;;;4994981;28;20084;-69
2023/12/08 14:49:08;;;;;;;39.00;14.18;;;;;;;;;;4991653;28;20030;-69
2023/12/08 14:51:53;;;;;;;30.67;13.07;;;;;;;;;;4973971;28;20030;-69
2023/12/08 14:54:39;;;;;;;35.30;12.98;;;;;;;;;;4982056;28;20042;-69
2023/12/08 14:57:25;;;;;;;29.98;11.20;;;;;;;;;;4992087;28;20029;-69
2023/12/08 15:00:11;;;;;;;35.47;13.77;;;;;;;;;;4993119;28;20054;-69
2023/12/08 15:02:57;;;;;;;35.05;13.10;;;;;;;;;;4994669;28;20033;-69
2023/12/08 15:05:42;;;;;;;34.13;13.32;;;;;;;;;;4992430;28;20502;-69
2023/12/08 15:08:28;;;;;;;35.05;13.05;;;;;;;;;;4992427;28;20065;-69
2023/12/08 15:11:13;;;;;;;38.15;14.13;;;;;;;;;;4993642;28;20030;-69
2023/12/08 15:13:59;;;;;;;39.10;14.00;;;;;;;;;;4993459;28;20488;-69
2023/12/08 15:16:45;;;;;;;36.05;13.60;;;;;;;;;;4992861;28;20049;-69
2023/12/08 15:19:31;;;;;;;32.88;14.75;;;;;;;;;;4993271;28;20022;-69
2023/12/08 15:22:17;;;;;;;38.50;15.27;;;;;;;;;;4993563;28;20499;-69
2023/12/08 15:25:03;;;;;;;44.00;16.77;;;;;;;;;;4992911;28;20094;-69
2023/12/08 15:27:49;;;;;;;42.50;15.48;;;;;;;;;;4977963;28;20023;-68
2023/12/08 15:30:35;;;;;;;40.72;15.93;;;;;;;;;;4973015;28;20022;-68
2023/12/08 15:33:20;;;;;;;40.83;14.93;;;;;;;;;;4973617;28;20041;-69
2023/12/08 15:36:07;;;;;;;41.50;14.43;;;;;;;;;;4973376;28;20085;-69
2023/12/08 15:38:53;;;;;;;38.20;13.13;;;;;;;;;;4979310;28;20038;-69
2023/12/08 15:41:42;;;;;;;35.70;14.63;;;;;;;;;;4978344;28;20042;-69
2023/12/08 15:44:28;;;;;;;41.65;15.70;;;;;;;;;;4991711;28;20026;-69
2023/12/08 15:47:14;;;;;;;36.40;14.88;;;;;;;;;;4992729;28;20026;-69
2023/12/08 15:50:01;;;;;;;35.95;14.32;;;;;;;;;;4992403;28;20084;-71
2023/12/08 15:52:47;;;;;;;38.17;15.35;;;;;;;;;;4993325;28;20084;-70
2023/12/08 15:55:33;;;;;;;44.22;15.20;;;;;;;;;;4993306;28;20450;-69
2023/12/08 15:58:18;;;;;;;43.45;14.27;;;;;;;;;;4992418;28;20646;-69
2023/12/08 16:01:04;;;;;;;41.60;15.52;;;;;;;;;;4991937;28;20396;-68
2023/12/08 16:03:50;;;;;;;41.70;14.32;;;;;;;;;;4992937;28;20030;-68
2023/12/08 16:06:35;;;;;;;42.75;14.73;;;;;;;;;;4992012;28;20027;-69
2023/12/08 16:09:21;;;;;;;39.47;14.70;;;;;;;;;;4978326;28;20105;-69
2023/12/08 16:12:07;;;;;;;40.35;15.93;;;;;;;;;;4992079;28;20026;-69